Aviation Digital Data Service (ADDS)

Output produced by TAFs form (0033 UTC 21 January 2018)
found at http://aviationweather.gov/adds/tafs/
 
KDMN 202328Z 2100/2124 24013G21KT P6SM FEW080 BKN250 
     FM210300 25018G25KT P6SM VCSH SCT040 
     FM210900 26022G29KT P6SM FEW060 
     FM211600 28028G36KT P6SM SKC